Time;durP1;ratioP1;P1;durP2;ratioP2;P2;SDS_P1;SDS_P2;PMS_P1;PMS_P2;Temp;Humidity;BMP_temperature;BMP_pressure;BME280_temperature;BME280_humidity;BME280_pressure;Samples;Min_cycle;Max_cycle;Signal;HPM_P1;HPM_P2
2021/08/23 00:00:51;;;;;;;4.57;2.40;;;20.80;82.60;;;;;;5066567;28;20020;-59
2021/08/23 00:03:16;;;;;;;4.30;2.55;;;20.80;82.60;;;;;;5065924;28;20502;-59
2021/08/23 00:05:42;;;;;;;3.40;2.72;;;20.80;82.60;;;;;;5042535;28;20028;-59
2021/08/23 00:08:08;;;;;;;5.30;2.28;;;20.80;82.70;;;;;;5060409;28;20029;-59
2021/08/23 00:10:33;;;;;;;3.45;2.20;;;20.80;82.70;;;;;;5028206;28;20036;-58
2021/08/23 00:12:59;;;;;;;2.95;2.00;;;20.80;82.70;;;;;;5040355;28;20037;-59
2021/08/23 00:15:24;;;;;;;4.82;2.60;;;20.80;82.70;;;;;;5039692;28;20565;-59
2021/08/23 00:17:50;;;;;;;9.35;2.60;;;20.80;82.70;;;;;;5044411;28;20130;-59
2021/08/23 00:20:21;;;;;;;3.28;2.20;;;20.80;82.80;;;;;;5024432;28;20164;-59
2021/08/23 00:22:48;;;;;;;5.78;2.53;;;20.80;82.80;;;;;;5066314;28;20040;-59
2021/08/23 00:25:16;;;;;;;4.60;2.30;;;20.70;82.80;;;;;;5028209;28;20117;-59
2021/08/23 00:27:42;;;;;;;2.63;1.90;;;20.70;82.80;;;;;;5052941;28;20586;-62
2021/08/23 00:30:09;;;;;;;3.42;2.28;;;20.70;82.80;;;;;;5029487;28;20033;-61
2021/08/23 00:32:35;;;;;;;7.28;2.42;;;20.70;82.80;;;;;;5066483;28;20464;-59
2021/08/23 00:35:00;;;;;;;3.05;2.35;;;20.70;82.80;;;;;;5071993;28;20139;-59
2021/08/23 00:37:26;;;;;;;3.30;2.90;;;20.70;82.90;;;;;;5067716;28;20037;-59
2021/08/23 00:39:52;;;;;;;6.60;2.50;;;20.70;82.90;;;;;;5048626;28;20031;-59
2021/08/23 00:42:18;;;;;;;3.55;2.63;;;20.70;82.90;;;;;;5035322;28;20166;-59
2021/08/23 00:44:43;;;;;;;3.05;2.38;;;20.70;82.90;;;;;;5041540;28;20131;-59
2021/08/23 00:47:09;;;;;;;2.90;2.47;;;20.70;82.90;;;;;;5052220;28;20058;-59
2021/08/23 00:49:35;;;;;;;3.40;2.33;;;20.70;83.00;;;;;;5052795;28;20025;-59
2021/08/23 00:52:00;;;;;;;3.53;2.45;;;20.70;83.00;;;;;;5030983;28;20109;-59
2021/08/23 00:54:26;;;;;;;5.72;2.60;;;20.60;82.90;;;;;;5044969;28;20044;-59
2021/08/23 00:56:52;;;;;;;6.28;2.50;;;20.60;82.90;;;;;;5051106;28;20111;-59
2021/08/23 00:59:22;;;;;;;2.85;2.05;;;20.60;82.90;;;;;;5046211;28;20045;-58
2021/08/23 01:02:07;;;;;;;4.88;2.22;;;20.60;82.90;;;;;;5044233;28;20032;-59
2021/08/23 01:04:51;;;;;;;2.65;2.08;;;20.60;82.90;;;;;;5048200;28;20474;-58
2021/08/23 01:07:17;;;;;;;2.83;2.30;;;20.60;82.90;;;;;;5046556;28;20028;-59
2021/08/23 01:09:49;;;;;;;2.97;2.10;;;20.60;82.90;;;;;;5046613;28;20024;-59
2021/08/23 01:12:14;;;;;;;2.92;2.17;;;20.60;82.90;;;;;;5013590;28;20028;-59
2021/08/23 01:14:40;;;;;;;3.67;2.60;;;20.60;83.00;;;;;;5033087;28;20082;-59
2021/08/23 01:17:06;;;;;;;7.78;3.42;;;20.60;82.90;;;;;;5045852;28;20079;-59
2021/08/23 01:19:32;;;;;;;4.72;2.75;;;20.60;82.90;;;;;;5016465;28;20527;-59
2021/08/23 01:22:02;;;;;;;2.95;2.60;;;20.60;82.90;;;;;;5031532;28;20047;-59
2021/08/23 01:24:32;;;;;;;5.63;2.53;;;20.50;82.90;;;;;;5042038;28;20043;-58
2021/08/23 01:26:57;;;;;;;4.03;2.53;;;20.50;83.00;;;;;;5043759;28;20032;-59
2021/08/23 01:29:27;;;;;;;3.42;2.17;;;20.50;82.90;;;;;;5029624;28;20051;-59
2021/08/23 01:31:56;;;;;;;4.30;3.10;;;20.50;82.90;;;;;;5030534;28;20067;-59
2021/08/23 01:34:22;;;;;;;4.75;2.50;;;20.50;82.90;;;;;;5058483;28;20036;-59
2021/08/23 01:36:48;;;;;;;5.45;2.30;;;20.50;82.90;;;;;;5028430;28;20063;-59
2021/08/23 01:39:13;;;;;;;6.65;2.60;;;20.50;82.90;;;;;;5043568;28;20112;-59
2021/08/23 01:41:39;;;;;;;4.70;2.60;;;20.50;83.00;;;;;;5045177;28;20039;-59
2021/08/23 01:44:05;;;;;;;3.33;2.40;;;20.50;83.00;;;;;;5029850;28;20308;-59
2021/08/23 01:46:31;;;;;;;4.07;2.35;;;20.50;83.00;;;;;;5065940;28;20388;-59
2021/08/23 01:48:57;;;;;;;6.35;2.35;;;20.50;83.00;;;;;;5031685;28;20024;-59
2021/08/23 01:51:23;;;;;;;4.60;2.28;;;20.50;83.00;;;;;;5062081;28;20048;-59
2021/08/23 01:53:48;;;;;;;2.97;2.17;;;20.50;83.00;;;;;;5065820;28;20036;-58
2021/08/23 01:56:14;;;;;;;8.15;1.90;;;20.50;83.00;;;;;;5026863;28;20078;-59
2021/08/23 01:58:39;;;;;;;6.45;2.58;;;20.50;83.00;;;;;;5047967;28;20268;-58
2021/08/23 02:01:05;;;;;;;7.90;2.28;;;20.40;82.90;;;;;;5068119;28;20046;-59
2021/08/23 02:03:31;;;;;;;5.43;2.65;;;20.40;82.90;;;;;;5027785;28;20044;-59
2021/08/23 02:05:56;;;;;;;3.47;2.28;;;20.40;82.90;;;;;;5016260;28;20033;-59
2021/08/23 02:08:22;;;;;;;4.57;2.45;;;20.40;83.00;;;;;;5067644;28;20033;-58
2021/08/23 02:10:47;;;;;;;11.10;2.30;;;20.40;83.00;;;;;;5067364;28;20090;-59
2021/08/23 02:13:13;;;;;;;5.25;2.40;;;20.40;83.00;;;;;;5057638;28;20045;-59
2021/08/23 02:15:38;;;;;;;5.13;2.22;;;20.40;83.00;;;;;;5059347;28;20059;-59
2021/08/23 02:18:04;;;;;;;4.15;2.30;;;20.40;83.00;;;;;;5054423;28;20124;-59
2021/08/23 02:20:29;;;;;;;7.20;2.38;;;20.40;83.00;;;;;;5025988;28;20024;-59
2021/08/23 02:22:55;;;;;;;5.22;2.13;;;20.40;83.00;;;;;;5030713;28;20374;-59
2021/08/23 02:25:23;;;;;;;8.77;2.47;;;20.40;83.10;;;;;;5067413;28;20028;-59
2021/08/23 02:27:52;;;;;;;7.20;2.08;;;20.30;83.10;;;;;;5026736;28;20439;-59
2021/08/23 02:30:17;;;;;;;4.60;1.80;;;20.30;83.20;;;;;;5024402;28;20036;-59
2021/08/23 02:32:43;;;;;;;4.07;1.98;;;20.30;83.20;;;;;;5046970;28;20353;-59
2021/08/23 02:35:09;;;;;;;4.55;2.08;;;20.30;83.30;;;;;;5066477;28;20045;-59
2021/08/23 02:37:34;;;;;;;5.60;2.10;;;20.30;83.30;;;;;;5012441;28;20480;-59
2021/08/23 02:39:59;;;;;;;7.65;2.00;;;20.30;83.40;;;;;;5069737;28;20027;-59
2021/08/23 02:42:25;;;;;;;3.25;1.95;;;20.30;83.40;;;;;;5008507;28;20472;-59
2021/08/23 02:44:50;;;;;;;14.40;2.55;;;20.30;83.50;;;;;;5043465;28;20142;-58
2021/08/23 02:47:16;;;;;;;5.55;2.28;;;20.30;83.70;;;;;;5026305;28;20028;-59
2021/08/23 02:49:42;;;;;;;3.60;1.70;;;20.30;83.70;;;;;;5042704;28;20047;-58
2021/08/23 02:52:07;;;;;;;6.95;2.80;;;20.20;83.60;;;;;;5063517;28;20047;-59
2021/08/23 02:54:33;;;;;;;7.00;2.10;;;20.30;83.80;;;;;;5032909;28;20268;-59
2021/08/23 02:56:58;;;;;;;3.40;2.08;;;20.20;83.80;;;;;;5041828;28;20071;-59
2021/08/23 02:59:24;;;;;;;4.70;2.30;;;20.20;83.90;;;;;;5044101;28;20036;-59
2021/08/23 03:01:49;;;;;;;9.13;2.20;;;20.20;83.90;;;;;;5064710;28;20036;-59
2021/08/23 03:04:15;;;;;;;3.13;2.05;;;20.20;84.00;;;;;;5044901;28;20030;-59
2021/08/23 03:06:40;;;;;;;4.68;2.38;;;20.20;84.10;;;;;;5058450;28;20056;-59
2021/08/23 03:09:06;;;;;;;4.97;2.35;;;20.20;84.20;;;;;;5060699;28;20559;-59
2021/08/23 03:11:31;;;;;;;5.30;2.45;;;20.10;84.20;;;;;;5044651;28;20036;-59
2021/08/23 03:13:57;;;;;;;6.00;2.92;;;20.10;84.30;;;;;;5044606;28;20020;-59
2021/08/23 03:16:22;;;;;;;5.00;2.63;;;20.10;84.30;;;;;;5064380;28;20040;-59
2021/08/23 03:18:48;;;;;;;5.00;2.65;;;20.10;84.40;;;;;;5044456;28;20032;-59
2021/08/23 03:21:13;;;;;;;7.05;2.88;;;20.10;84.40;;;;;;5047161;28;20060;-59
2021/08/23 03:23:39;;;;;;;5.25;3.33;;;20.10;84.50;;;;;;5058134;28;20044;-59
2021/08/23 03:26:06;;;;;;;3.55;2.58;;;20.10;84.50;;;;;;5056368;28;20049;-59
2021/08/23 03:28:31;;;;;;;11.02;3.38;;;20.10;84.60;;;;;;5051808;28;20029;-58
2021/08/23 03:30:57;;;;;;;10.27;3.75;;;20.00;84.60;;;;;;5044387;28;20028;-59
2021/08/23 03:33:22;;;;;;;6.97;3.40;;;20.00;84.60;;;;;;5041781;28;20020;-59
2021/08/23 03:35:48;;;;;;;14.63;3.20;;;20.00;84.70;;;;;;5023351;28;20144;-59
2021/08/23 03:38:14;;;;;;;16.65;3.33;;;20.00;84.80;;;;;;5039803;28;20060;-59
2021/08/23 03:40:40;;;;;;;14.50;3.50;;;20.10;85.00;;;;;;5042841;28;20384;-59
2021/08/23 03:43:05;;;;;;;9.77;2.78;;;20.00;85.00;;;;;;5026339;28;20040;-59
2021/08/23 03:45:31;;;;;;;10.35;3.30;;;19.90;85.00;;;;;;5046160;28;20033;-59
2021/08/23 03:47:56;;;;;;;32.50;5.45;;;19.90;85.10;;;;;;5025465;28;20037;-59
2021/08/23 03:50:22;;;;;;;42.17;5.88;;;19.90;85.20;;;;;;5029384;28;20033;-59
2021/08/23 03:52:48;;;;;;;55.92;6.78;;;19.90;85.30;;;;;;5047944;28;20028;-59
2021/08/23 03:55:13;;;;;;;56.65;5.43;;;19.90;85.40;;;;;;5047065;28;20039;-59
2021/08/23 03:57:39;;;;;;;33.42;6.45;;;19.80;85.40;;;;;;5042631;28;20162;-59
2021/08/23 04:00:05;;;;;;;26.90;5.72;;;19.80;85.50;;;;;;5064100;28;20555;-59
2021/08/23 04:02:30;;;;;;;29.88;4.88;;;19.80;85.50;;;;;;5044211;28;20024;-58
2021/08/23 04:04:56;;;;;;;20.48;4.57;;;19.80;85.70;;;;;;5029191;28;20041;-59
2021/08/23 04:07:21;;;;;;;34.38;4.88;;;19.80;85.50;;;;;;5030087;28;20122;-59
2021/08/23 04:09:47;;;;;;;22.38;4.38;;;19.80;85.50;;;;;;5047641;28;20027;-58
2021/08/23 04:12:12;;;;;;;33.42;6.32;;;19.80;85.50;;;;;;5032663;28;20051;-59
2021/08/23 04:14:38;;;;;;;30.10;6.07;;;19.80;85.60;;;;;;5026722;28;20775;-59
2021/08/23 04:17:03;;;;;;;22.15;6.03;;;19.80;85.60;;;;;;5047457;28;20194;-59
2021/08/23 04:19:29;;;;;;;28.95;5.25;;;19.70;85.70;;;;;;5051711;28;20089;-59
2021/08/23 04:21:55;;;;;;;25.75;5.00;;;19.70;85.60;;;;;;5048463;28;20036;-59
2021/08/23 04:24:20;;;;;;;23.70;5.40;;;19.70;85.70;;;;;;5062587;28;20025;-59
2021/08/23 04:26:46;;;;;;;27.65;4.70;;;19.70;85.80;;;;;;5066142;28;20036;-58
2021/08/23 04:29:11;;;;;;;54.30;6.95;;;19.70;85.70;;;;;;5066453;28;20036;-58
2021/08/23 04:31:37;;;;;;;51.92;5.55;;;19.70;85.70;;;;;;5062596;28;20443;-59
2021/08/23 04:34:03;;;;;;;22.33;4.70;;;19.60;85.70;;;;;;5041260;28;20020;-59
2021/08/23 04:36:28;;;;;;;71.90;7.05;;;19.70;85.80;;;;;;5033988;28;20032;-59
2021/08/23 04:38:54;;;;;;;50.45;6.07;;;19.60;85.90;;;;;;5046212;28;20024;-59
2021/08/23 04:41:19;;;;;;;46.10;5.47;;;19.60;86.00;;;;;;5042333;28;20085;-59
2021/08/23 04:43:45;;;;;;;35.67;4.80;;;19.60;86.20;;;;;;5051626;28;20086;-59
2021/08/23 04:46:10;;;;;;;41.33;4.75;;;19.60;86.20;;;;;;5033255;28;20563;-59
2021/08/23 04:48:36;;;;;;;33.80;5.28;;;19.50;86.30;;;;;;5042223;28;20447;-59
2021/08/23 04:51:03;;;;;;;29.25;4.93;;;19.60;86.40;;;;;;5045489;28;20508;-59
2021/08/23 04:53:29;;;;;;;30.80;4.50;;;19.50;86.40;;;;;;5028277;28;20045;-59
2021/08/23 04:55:55;;;;;;;28.80;4.60;;;19.50;86.30;;;;;;5030764;28;20025;-59
2021/08/23 04:58:21;;;;;;;24.50;3.70;;;19.50;86.30;;;;;;5027709;28;20025;-59
2021/08/23 05:00:47;;;;;;;22.80;3.50;;;19.50;86.30;;;;;;5044195;28;20051;-59
2021/08/23 05:03:13;;;;;;;27.83;4.35;;;19.50;86.30;;;;;;5064468;28;20404;-59
2021/08/23 05:05:38;;;;;;;68.72;6.63;;;19.50;86.30;;;;;;5045071;28;20047;-59
2021/08/23 05:08:04;;;;;;;56.45;6.45;;;19.50;86.30;;;;;;5040682;28;20395;-59
2021/08/23 05:10:29;;;;;;;45.35;5.65;;;19.50;86.40;;;;;;5061183;28;20472;-59
2021/08/23 05:12:55;;;;;;;28.58;4.32;;;19.40;86.30;;;;;;5024425;28;20484;-59
2021/08/23 05:15:22;;;;;;;29.02;4.93;;;19.40;86.30;;;;;;5013489;28;20563;-59
2021/08/23 05:17:47;;;;;;;57.28;6.68;;;19.40;86.40;;;;;;5040713;28;20076;-59
2021/08/23 05:20:13;;;;;;;80.22;5.18;;;19.50;86.60;;;;;;5038193;28;20092;-59
2021/08/23 05:22:38;;;;;;;59.97;5.40;;;19.40;86.50;;;;;;5040978;28;20170;-59
2021/08/23 05:25:05;;;;;;;49.42;5.65;;;19.40;86.60;;;;;;5044236;28;20126;-59
2021/08/23 05:27:30;;;;;;;38.05;5.35;;;19.40;86.60;;;;;;5039976;28;20048;-59
2021/08/23 05:29:59;;;;;;;40.65;6.20;;;19.40;86.60;;;;;;5041445;28;20103;-59
2021/08/23 05:32:25;;;;;;;52.03;6.18;;;19.40;86.90;;;;;;5042475;28;20048;-59
2021/08/23 05:34:50;;;;;;;49.28;5.75;;;19.40;87.00;;;;;;5042787;28;20047;-59
2021/08/23 05:37:16;;;;;;;46.63;5.90;;;19.30;86.90;;;;;;5040452;28;20125;-59
2021/08/23 05:39:41;;;;;;;42.40;6.32;;;19.30;86.90;;;;;;5042844;28;20510;-59
2021/08/23 05:42:07;;;;;;;30.10;4.93;;;19.30;86.90;;;;;;5024455;28;20035;-59
2021/08/23 05:44:32;;;;;;;27.05;5.45;;;19.30;87.10;;;;;;5064654;28;20064;-59
2021/08/23 05:46:58;;;;;;;26.50;5.45;;;19.20;87.00;;;;;;5039840;28;20055;-59
2021/08/23 05:49:23;;;;;;;24.30;5.78;;;19.20;87.10;;;;;;5063993;28;20107;-59
2021/08/23 05:51:49;;;;;;;17.38;5.00;;;19.30;87.20;;;;;;5032592;28;20405;-59
2021/08/23 05:54:14;;;;;;;23.27;4.68;;;19.20;87.20;;;;;;5031642;28;20268;-59
2021/08/23 05:56:40;;;;;;;31.98;4.90;;;19.20;87.10;;;;;;5015374;28;20049;-59
2021/08/23 05:59:07;;;;;;;27.63;4.60;;;19.20;87.20;;;;;;5072844;28;20036;-59
2021/08/23 06:01:33;;;;;;;18.33;4.80;;;19.20;87.20;;;;;;5044523;28;20440;-59
2021/08/23 06:03:58;;;;;;;23.88;4.78;;;19.20;87.30;;;;;;5041619;28;20078;-59
2021/08/23 06:06:24;;;;;;;19.08;3.80;;;19.20;87.20;;;;;;5049520;28;20036;-59
2021/08/23 06:08:49;;;;;;;23.55;5.05;;;19.20;87.20;;;;;;5034737;28;20024;-59
2021/08/23 06:11:15;;;;;;;18.35;4.57;;;19.20;88.00;;;;;;5046727;28;20740;-59
2021/08/23 06:13:40;;;;;;;20.25;3.95;;;19.20;87.40;;;;;;5044198;28;20037;-59
2021/08/23 06:16:06;;;;;;;27.10;4.05;;;19.20;87.40;;;;;;5033257;28;20090;-59
2021/08/23 06:18:31;;;;;;;22.10;3.90;;;19.20;87.40;;;;;;5046014;28;20105;-59
2021/08/23 06:21:00;;;;;;;24.48;4.20;;;19.20;87.40;;;;;;5060159;28;20365;-59
2021/08/23 06:23:25;;;;;;;15.55;3.95;;;19.20;88.10;;;;;;5041750;28;20071;-59
2021/08/23 06:25:51;;;;;;;16.85;4.00;;;19.10;87.50;;;;;;5057401;28;20500;-59
2021/08/23 06:28:19;;;;;;;19.75;4.00;;;19.20;87.60;;;;;;5024147;28;20523;-59
2021/08/23 06:30:45;;;;;;;14.88;3.72;;;19.20;87.80;;;;;;5058063;28;20538;-59
2021/08/23 06:33:10;;;;;;;18.50;3.72;;;19.20;87.70;;;;;;5037211;28;20111;-59
2021/08/23 06:35:36;;;;;;;20.25;4.32;;;19.10;87.60;;;;;;5047263;28;20101;-59
2021/08/23 06:38:01;;;;;;;24.17;4.75;;;19.20;87.70;;;;;;5047028;28;20062;-59
2021/08/23 06:40:27;;;;;;;27.25;4.13;;;19.20;87.90;;;;;;5026933;28;20119;-59
2021/08/23 06:42:53;;;;;;;15.55;3.92;;;19.20;88.00;;;;;;5032008;28;20032;-59
2021/08/23 06:45:18;;;;;;;14.82;4.30;;;19.20;88.00;;;;;;5042144;28;20030;-59
2021/08/23 06:47:44;;;;;;;23.00;3.58;;;19.20;88.20;;;;;;5052920;28;20132;-59
2021/08/23 06:50:09;;;;;;;36.00;5.65;;;19.20;87.90;;;;;;5042937;28;20080;-59
2021/08/23 06:52:35;;;;;;;24.15;4.97;;;19.30;87.80;;;;;;5015139;28;20051;-59
2021/08/23 06:55:00;;;;;;;22.80;4.60;;;19.20;87.70;;;;;;5063644;28;20051;-59
2021/08/23 06:57:26;;;;;;;25.42;4.45;;;19.30;87.80;;;;;;5029494;28;20028;-59
2021/08/23 06:59:51;;;;;;;16.70;3.72;;;19.20;87.70;;;;;;5058602;28;20059;-59
2021/08/23 07:02:17;;;;;;;24.10;4.20;;;19.30;87.70;;;;;;5051994;28;20619;-59
2021/08/23 07:04:44;;;;;;;15.07;3.70;;;19.20;87.50;;;;;;5005457;28;20087;-59
2021/08/23 07:07:10;;;;;;;16.98;3.53;;;19.20;87.20;;;;;;5044692;28;20159;-59
2021/08/23 07:09:35;;;;;;;20.45;3.90;;;19.20;87.20;;;;;;5042664;28;20136;-59
2021/08/23 07:12:01;;;;;;;9.13;2.72;;;19.20;86.90;;;;;;5023682;28;20150;-59
2021/08/23 07:14:26;;;;;;;11.10;3.13;;;19.20;86.70;;;;;;5058398;28;20064;-59
2021/08/23 07:16:52;;;;;;;21.65;3.03;;;19.20;86.80;;;;;;5038049;28;20499;-59
2021/08/23 07:19:18;;;;;;;18.55;4.30;;;19.20;87.00;;;;;;5038809;28;20366;-59
2021/08/23 07:21:44;;;;;;;12.18;2.80;;;19.10;87.70;;;;;;5020194;28;20412;-59
2021/08/23 07:24:10;;;;;;;9.43;2.38;;;19.10;87.20;;;;;;5028387;28;20029;-58
2021/08/23 07:26:36;;;;;;;11.73;2.50;;;19.10;87.10;;;;;;5043638;28;20143;-59
2021/08/23 07:29:02;;;;;;;10.13;2.40;;;19.10;87.10;;;;;;5037522;28;20597;-59
2021/08/23 07:31:27;;;;;;;5.32;2.38;;;19.10;86.90;;;;;;5032435;28;20028;-59
2021/08/23 07:33:53;;;;;;;7.55;2.33;;;19.10;86.60;;;;;;5046017;28;20092;-60
2021/08/23 07:36:18;;;;;;;4.65;2.42;;;19.10;86.60;;;;;;5049292;28;20105;-59
2021/08/23 07:38:44;;;;;;;9.93;2.28;;;19.10;86.30;;;;;;5032213;28;20040;-59
2021/08/23 07:41:09;;;;;;;6.43;2.40;;;19.10;86.30;;;;;;5062952;28;20032;-59
2021/08/23 07:43:35;;;;;;;9.85;1.88;;;19.10;86.30;;;;;;5044384;28;20047;-59
2021/08/23 07:46:00;;;;;;;9.35;2.00;;;19.10;86.10;;;;;;5043274;28;20119;-59
2021/08/23 07:48:26;;;;;;;6.65;2.40;;;19.10;85.80;;;;;;5030645;28;20032;-59
2021/08/23 07:50:52;;;;;;;13.13;2.15;;;19.10;85.60;;;;;;5047895;28;20059;-59
2021/08/23 07:53:17;;;;;;;3.90;2.40;;;19.20;85.70;;;;;;5012529;28;20061;-60
2021/08/23 07:55:43;;;;;;;10.30;2.28;;;19.10;85.40;;;;;;5045796;28;20051;-60
2021/08/23 07:58:08;;;;;;;4.80;2.25;;;19.20;85.30;;;;;;5026336;28;20029;-59
2021/08/23 08:00:34;;;;;;;6.50;2.70;;;19.20;85.20;;;;;;5040388;28;20033;-60
2021/08/23 08:02:59;;;;;;;8.73;1.70;;;19.20;85.00;;;;;;5041929;28;20166;-60
2021/08/23 08:05:25;;;;;;;6.93;2.25;;;19.20;84.90;;;;;;5050020;28;20024;-59
2021/08/23 08:07:50;;;;;;;8.07;2.47;;;19.20;84.90;;;;;;5046094;28;20572;-60
2021/08/23 08:10:16;;;;;;;14.98;2.65;;;19.20;84.80;;;;;;5040618;28;20538;-60
2021/08/23 08:12:42;;;;;;;4.75;2.00;;;19.30;84.70;;;;;;5009149;28;20479;-60
2021/08/23 08:15:08;;;;;;;13.32;2.40;;;19.30;84.50;;;;;;5026700;28;20075;-59
2021/08/23 08:17:34;;;;;;;13.02;2.40;;;19.30;84.60;;;;;;5044059;28;20166;-60
2021/08/23 08:20:00;;;;;;;8.95;2.15;;;19.40;84.30;;;;;;5030784;28;20156;-59
2021/08/23 08:22:25;;;;;;;14.48;2.42;;;19.40;84.10;;;;;;5023977;28;20524;-59
2021/08/23 08:24:51;;;;;;;9.45;2.33;;;19.40;83.70;;;;;;5027194;28;20047;-60
2021/08/23 08:27:16;;;;;;;10.35;2.33;;;19.40;83.40;;;;;;5011084;28;20091;-59
2021/08/23 08:29:42;;;;;;;16.80;2.92;;;19.40;83.50;;;;;;5033552;28;20056;-59
2021/08/23 08:32:07;;;;;;;9.73;2.47;;;19.50;83.40;;;;;;5043701;28;20581;-59
2021/08/23 08:34:33;;;;;;;17.73;2.47;;;19.50;83.30;;;;;;5014428;28;20401;-59
2021/08/23 08:36:59;;;;;;;10.27;2.47;;;19.50;83.20;;;;;;5056515;28;20360;-59
2021/08/23 08:39:24;;;;;;;11.50;2.38;;;19.50;83.00;;;;;;5027851;28;20032;-59
2021/08/23 08:41:50;;;;;;;7.72;2.53;;;19.50;83.10;;;;;;5045110;28;20111;-60
2021/08/23 08:44:15;;;;;;;14.70;2.97;;;19.60;83.10;;;;;;5061751;28;20016;-60
2021/08/23 08:46:41;;;;;;;7.88;2.42;;;19.60;83.10;;;;;;5047141;28;20037;-59
2021/08/23 08:49:07;;;;;;;29.25;3.72;;;19.60;82.80;;;;;;5011579;28;21473;-60
2021/08/23 08:51:36;;;;;;;17.50;3.20;;;19.60;82.90;;;;;;5027122;28;20647;-59
2021/08/23 08:54:03;;;;;;;13.38;2.97;;;19.60;83.10;;;;;;5043822;28;20027;-59
2021/08/23 08:56:30;;;;;;;29.38;5.30;;;19.60;83.20;;;;;;5046329;28;20051;-59
2021/08/23 08:58:56;;;;;;;25.05;3.30;;;19.60;83.10;;;;;;5043210;28;20024;-60
2021/08/23 09:01:21;;;;;;;19.27;2.60;;;19.60;83.10;;;;;;5006225;28;20035;-59
2021/08/23 09:03:47;;;;;;;19.90;3.65;;;19.60;82.70;;;;;;5021589;28;20114;-59
2021/08/23 09:06:13;;;;;;;19.70;3.20;;;19.70;82.60;;;;;;5061960;28;20129;-59
2021/08/23 09:08:43;;;;;;;22.20;3.35;;;19.70;82.70;;;;;;5045007;28;20017;-60
2021/08/23 09:11:10;;;;;;;20.20;3.47;;;19.70;82.70;;;;;;5039575;28;20036;-59
2021/08/23 09:13:36;;;;;;;17.90;2.70;;;19.70;82.50;;;;;;5023176;28;20110;-59
2021/08/23 09:16:01;;;;;;;21.95;3.13;;;19.70;82.40;;;;;;5056391;28;20031;-60
2021/08/23 09:18:28;;;;;;;22.70;3.17;;;19.70;82.20;;;;;;5019382;28;20154;-59
2021/08/23 09:21:00;;;;;;;17.98;2.88;;;19.70;82.40;;;;;;5025204;28;20535;-60
2021/08/23 09:23:41;;;;;;;14.43;3.53;;;19.70;82.20;;;;;;5042160;28;20224;-59
2021/08/23 09:26:08;;;;;;;20.40;3.50;;;19.70;82.10;;;;;;5040388;28;20037;-60
2021/08/23 09:28:33;;;;;;;30.50;4.35;;;19.70;82.10;;;;;;5035338;28;20033;-59
2021/08/23 09:30:59;;;;;;;39.03;5.45;;;19.70;82.10;;;;;;5022515;28;20509;-59
2021/08/23 09:33:25;;;;;;;27.55;4.10;;;19.80;82.10;;;;;;5058201;28;20491;-59
2021/08/23 09:35:51;;;;;;;46.47;7.22;;;19.80;82.00;;;;;;5006771;28;20131;-59
2021/08/23 09:38:18;;;;;;;40.28;5.13;;;19.70;82.50;;;;;;5043289;28;20444;-59
2021/08/23 09:40:44;;;;;;;23.02;4.97;;;19.80;82.60;;;;;;5024031;28;20033;-59
2021/08/23 09:43:13;;;;;;;48.75;5.00;;;19.80;82.20;;;;;;5023752;28;20121;-61
2021/08/23 09:46:05;;;;;;;37.78;4.30;;;19.80;81.80;;;;;;5022115;28;20308;-59
2021/08/23 09:48:30;;;;;;;34.10;4.00;;;19.80;81.70;;;;;;5012504;28;20033;-59
2021/08/23 09:50:56;;;;;;;42.50;4.45;;;19.90;81.70;;;;;;5024594;28;20526;-59
2021/08/23 09:53:21;;;;;;;37.15;4.78;;;19.90;81.60;;;;;;5025392;28;20071;-61
2021/08/23 09:55:49;;;;;;;37.80;5.28;;;19.90;81.50;;;;;;5055526;28;20590;-59
2021/08/23 09:58:15;;;;;;;29.02;4.30;;;19.90;81.40;;;;;;5019452;28;21756;-60
2021/08/23 10:00:42;;;;;;;36.97;5.13;;;19.90;81.40;;;;;;5015299;28;20051;-60
2021/08/23 10:03:16;;;;;;;46.10;5.38;;;20.00;81.20;;;;;;5022468;28;20111;-60
2021/08/23 10:05:43;;;;;;;32.80;4.63;;;20.00;81.00;;;;;;5019944;28;20155;-59
2021/08/23 10:08:10;;;;;;;45.53;5.97;;;20.00;80.90;;;;;;5022181;28;20056;-60
2021/08/23 10:10:38;;;;;;;35.55;5.35;;;20.10;81.00;;;;;;5023180;28;20081;-59
2021/08/23 10:13:03;;;;;;;59.88;6.38;;;20.10;81.00;;;;;;5022051;28;20116;-60
2021/08/23 10:15:29;;;;;;;86.07;9.10;;;20.20;81.10;;;;;;5011683;28;20035;-60
2021/08/23 10:17:54;;;;;;;63.50;6.25;;;20.20;80.90;;;;;;5040185;28;20055;-60
2021/08/23 10:20:20;;;;;;;53.97;6.65;;;20.20;80.70;;;;;;5004448;28;20425;-60
2021/08/23 10:22:45;;;;;;;48.00;7.28;;;20.30;80.70;;;;;;5036731;28;20074;-59
2021/08/23 10:25:11;;;;;;;151.30;13.82;;;20.30;80.60;;;;;;5020244;28;20035;-59
2021/08/23 10:27:39;;;;;;;88.10;10.75;;;20.30;80.30;;;;;;5037942;28;20030;-60
2021/08/23 10:30:07;;;;;;;67.32;7.47;;;20.30;79.80;;;;;;5038316;28;20048;-59
2021/08/23 10:32:40;;;;;;;81.63;8.20;;;20.40;79.40;;;;;;5043518;28;20035;-58
2021/08/23 10:35:25;;;;;;;95.30;8.73;;;20.40;79.40;;;;;;5039426;28;20044;-59
2021/08/23 10:37:52;;;;;;;81.65;8.95;;;20.40;79.40;;;;;;5062168;28;20107;-60
2021/08/23 10:40:25;;;;;;;108.30;9.90;;;20.50;78.90;;;;;;5038830;28;20081;-59
2021/08/23 10:42:50;;;;;;;78.50;7.88;;;20.40;78.00;;;;;;5027284;28;20024;-59
2021/08/23 10:45:17;;;;;;;89.47;8.13;;;20.50;77.30;;;;;;5036146;28;20040;-59
2021/08/23 10:47:47;;;;;;;68.10;6.43;;;20.50;76.70;;;;;;5037294;28;20064;-59
2021/08/23 10:50:25;;;;;;;41.50;5.32;;;20.60;76.60;;;;;;5039805;28;20020;-59
2021/08/23 10:52:52;;;;;;;72.93;7.05;;;20.60;75.90;;;;;;5025013;28;20082;-62
2021/08/23 10:55:32;;;;;;;69.22;7.70;;;20.60;75.60;;;;;;5041007;28;20480;-62
2021/08/23 10:58:05;;;;;;;44.90;6.43;;;20.70;75.20;;;;;;5008104;28;20043;-59
2021/08/23 11:00:38;;;;;;;36.45;5.95;;;20.70;74.90;;;;;;5018720;28;20052;-59
2021/08/23 11:03:04;;;;;;;50.63;5.63;;;20.80;74.60;;;;;;5025155;28;20060;-60
2021/08/23 11:05:29;;;;;;;54.47;5.93;;;20.90;74.50;;;;;;5042273;28;20465;-59
2021/08/23 11:07:59;;;;;;;35.10;5.32;;;20.90;74.40;;;;;;5049043;28;20039;-60
2021/08/23 11:10:25;;;;;;;56.42;8.68;;;20.90;74.50;;;;;;5043668;28;20023;-59
2021/08/23 11:12:55;;;;;;;38.60;5.25;;;20.90;74.80;;;;;;5021622;28;20060;-59
2021/08/23 11:15:20;;;;;;;54.92;5.63;;;20.90;74.60;;;;;;5027071;28;20099;-60
2021/08/23 11:17:56;;;;;;;30.10;6.03;;;21.00;74.70;;;;;;5054203;28;20144;-59
2021/08/23 11:20:23;;;;;;;29.77;4.80;;;21.00;74.90;;;;;;5035222;28;20184;-59
2021/08/23 11:22:55;;;;;;;29.27;4.78;;;21.00;74.10;;;;;;5036743;28;20040;-61
2021/08/23 11:25:41;;;;;;;35.88;4.72;;;21.10;74.00;;;;;;5043547;28;20118;-61
2021/08/23 11:28:14;;;;;;;32.58;4.55;;;21.10;73.90;;;;;;5045962;28;20399;-59
2021/08/23 11:30:41;;;;;;;23.60;4.68;;;21.10;73.20;;;;;;5062739;28;20028;-59
2021/08/23 11:33:07;;;;;;;43.78;6.32;;;21.10;72.70;;;;;;5036002;28;20029;-59
2021/08/23 11:35:33;;;;;;;32.22;4.78;;;21.20;72.70;;;;;;5044463;28;20039;-59
2021/08/23 11:38:09;;;;;;;34.33;4.30;;;21.20;72.40;;;;;;5023838;28;20032;-59
2021/08/23 11:40:36;;;;;;;30.63;3.88;;;21.30;71.90;;;;;;5038622;28;20463;-59
2021/08/23 11:43:03;;;;;;;32.42;4.85;;;21.40;71.90;;;;;;5025337;28;20040;-62
2021/08/23 11:45:36;;;;;;;27.00;4.13;;;21.40;72.00;;;;;;5036228;28;20024;-59
2021/08/23 11:48:02;;;;;;;24.73;4.15;;;21.50;71.80;;;;;;5030034;28;20112;-60
2021/08/23 11:50:27;;;;;;;27.63;3.47;;;21.50;72.00;;;;;;5033850;28;20120;-59
2021/08/23 11:52:56;;;;;;;28.23;4.25;;;21.60;71.90;;;;;;5020580;28;20523;-59
2021/08/23 11:55:30;;;;;;;19.23;3.13;;;21.60;71.40;;;;;;5025334;28;20049;-59
2021/08/23 11:58:04;;;;;;;22.65;3.22;;;21.70;71.20;;;;;;5038058;28;20207;-59
2021/08/23 12:00:30;;;;;;;24.52;3.85;;;21.70;70.80;;;;;;5024783;28;20515;-59
2021/08/23 12:03:08;;;;;;;28.65;4.07;;;21.80;70.70;;;;;;5013798;28;20036;-60
2021/08/23 12:05:35;;;;;;;16.35;3.15;;;21.90;70.40;;;;;;5027427;28;20511;-59
2021/08/23 12:08:00;;;;;;;19.77;3.47;;;21.90;70.10;;;;;;5035551;28;20543;-60
2021/08/23 12:10:33;;;;;;;21.48;3.30;;;22.00;69.90;;;;;;5057936;28;20041;-59
2021/08/23 12:13:10;;;;;;;19.85;2.80;;;22.10;69.40;;;;;;5033101;28;20082;-59
2021/08/23 12:15:56;;;;;;;20.23;2.95;;;22.20;69.30;;;;;;5030228;28;20032;-59
2021/08/23 12:18:31;;;;;;;19.38;2.67;;;22.20;68.10;;;;;;5036743;28;20049;-60
2021/08/23 12:21:17;;;;;;;10.45;3.03;;;22.30;68.00;;;;;;5036651;28;20025;-59
2021/08/23 12:24:02;;;;;;;39.08;4.65;;;22.30;67.50;;;;;;5029315;28;20157;-60
2021/08/23 12:26:41;;;;;;;19.77;3.10;;;22.30;67.10;;;;;;5047385;28;20448;-59
2021/08/23 12:29:29;;;;;;;16.90;3.20;;;22.40;67.30;;;;;;5046311;28;20433;-59
2021/08/23 12:31:58;;;;;;;12.90;2.67;;;22.40;67.80;;;;;;5060326;28;20347;-60
2021/08/23 12:34:27;;;;;;;18.77;3.00;;;22.50;67.80;;;;;;5025177;28;20033;-60
2021/08/23 12:36:53;;;;;;;16.65;2.67;;;22.60;68.00;;;;;;5016254;28;20041;-59
2021/08/23 12:39:18;;;;;;;14.25;2.83;;;22.70;68.20;;;;;;5019523;28;20807;-59